Flag for Germany

Past Weather in Langenfeld (Rheinland), North Rhine-Westphalia, Germany — Yesterday and Last 2 Weeks

Currently: 82 °F. Sunny. (Weather station: Duesseldorf, Germany). See more current weather

Past Weather in Langenfeld (Rheinland) — Graph

°F

Langenfeld (Rheinland) Temperature Yesterday

Maximum temperature yesterday: 91 °F (at 5:20 pm)
Minimum temperature yesterday: 59 °F (at 5:50 am)
Average temperature yesterday: 77 °F

High & Low Weather Summary for the Past Weeks

 TemperatureHumidityPressure
High91 °F (Aug 3, 3:20 pm)100% (Aug 5, 5:20 am)30.36 "Hg (Aug 5, 5:20 am)
Low48 °F (Aug 6, 5:50 am)20% (Aug 12, 3:20 pm)29.80 "Hg (Aug 14, 9:50 am)
Average72 °F55%30.10 "Hg
* Reported Jul 30 10:20 am — Aug 14 10:50 am, Langenfeld (Rheinland). Weather by CustomWeather, © 2022

Note: Actual official high and low records may vary slightly from our data, if they occured in-between our weather recording intervals... More about our weather records

Langenfeld (Rheinland) Weather History for the Previous 24 Hours

Scroll right to see more
 ConditionsComfort  
Time TempWeatherWind HumidityBarometerVisibility
10:50 am
Sun, Aug 14
82 °FSunny.5 mph45%29.80 "Hg10 mi
10:20 am81 °FPassing clouds.7 mph48%29.80 "HgN/A
9:50 am79 °FPassing clouds.7 mph51%29.80 "HgN/A
9:20 am77 °FPassing clouds.6 mph54%29.83 "HgN/A
8:50 am75 °FPassing clouds.9 mph57%29.83 "HgN/A
8:20 am73 °FSunny.7 mph61%29.83 "Hg10 mi
7:50 am70 °FPassing clouds.5 mph69%29.83 "HgN/A
7:20 am64 °FPassing clouds.3 mph78%29.83 "HgN/A
6:50 am63 °FSunny.5 mph83%29.83 "Hg10 mi
6:20 am63 °FSunny.5 mph83%29.86 "Hg10 mi
5:50 am63 °FClear.2 mph77%29.86 "Hg10 mi
5:20 am64 °FClear.1 mph73%29.86 "Hg10 mi
4:50 am64 °FClear.2 mph73%29.86 "Hg10 mi
4:20 am64 °FClear.2 mph73%29.86 "Hg10 mi
3:50 am66 °FPassing clouds.3 mph68%29.86 "HgN/A
3:20 am68 °FPassing clouds.3 mph64%29.86 "HgN/A
2:50 am70 °FPassing clouds.5 mph60%29.89 "HgN/A
1:20 am75 °FClear.8 mph44%29.92 "Hg10 mi
12:50 am73 °FClear.6 mph47%29.92 "Hg10 mi
12:20 am70 °FClear.6 mph57%29.92 "Hg10 mi
11:50 pm
Sat, Aug 13
70 °FClear.5 mph57%29.89 "Hg10 mi
11:20 pm72 °FClear.7 mph53%29.92 "Hg10 mi
10:50 pm73 °FClear.6 mph47%29.92 "Hg10 mi
10:20 pm77 °FClear.7 mph42%29.92 "Hg10 mi
9:50 pm81 °FClear.6 mph34%29.92 "Hg10 mi
9:20 pm81 °FClear.6 mph34%29.92 "Hg10 mi
8:50 pm82 °FSunny.6 mph32%29.89 "Hg10 mi
8:20 pm84 °FSunny.9 mph29%29.89 "Hg10 mi
7:50 pm86 °FSunny.9 mph27%29.89 "Hg10 mi
7:20 pm88 °FPassing clouds.9 mph25%29.89 "HgN/A
6:50 pm88 °FPassing clouds.9 mph25%29.92 "HgN/A
6:20 pm90 °FSunny.10 mph24%29.92 "Hg10 mi
5:50 pm90 °FPassing clouds.7 mph22%29.92 "HgN/A
5:20 pm91 °FPassing clouds.9 mph21%29.95 "HgN/A
4:50 pm90 °FSunny.3 mph21%29.95 "Hg10 mi
4:20 pm90 °FSunny.7 mph21%29.95 "Hg10 mi
3:20 pm88 °FSunny.8 mph22%29.98 "Hg10 mi
2:20 pm90 °FPassing clouds.10 mph22%30.01 "HgN/A
1:50 pm88 °FPassing clouds.6 mph24%30.01 "HgN/A
1:20 pm86 °FPassing clouds.8 mph27%30.01 "HgN/A
12:50 pm86 °FPassing clouds.9 mph27%30.01 "HgN/A
12:20 pm84 °FPassing clouds.8 mph29%30.01 "HgN/A
11:50 am84 °FSunny.5 mph29%30.04 "Hg10 mi
11:20 am84 °FPassing clouds.7 mph29%30.04 "HgN/A
Weather by CustomWeather, © 2022

See weather overview